Time;durP1;ratioP1;P1;durP2;ratioP2;P2;SDS_P1;SDS_P2;PMS_P1;PMS_P2;Temp;Humidity;BMP_temperature;BMP_pressure;BME280_temperature;BME280_humidity;BME280_pressure;Samples;Min_cycle;Max_cycle;Signal;HPM_P1;HPM_P2
2022/09/07 00:03:02;;;;;;;6.47;1.30;;;;;;;18.70;72.39;100417.94;5055844;28;20083;-81
2022/09/07 00:06:08;;;;;;;4.72;1.35;;;;;;;18.74;72.07;100429.94;5055560;28;20098;-81
2022/09/07 00:09:11;;;;;;;3.00;1.15;;;;;;;18.66;72.53;100427.09;5055873;28;20090;-81
2022/09/07 00:12:14;;;;;;;3.13;1.08;;;;;;;18.67;72.51;100438.56;5052493;28;20044;-81
2022/09/07 00:15:18;;;;;;;2.20;0.98;;;;;;;18.70;72.74;100454.16;5056270;28;20087;-81
2022/09/07 00:18:22;;;;;;;3.42;1.33;;;;;;;18.48;73.62;100506.34;5055360;28;20506;-81
2022/09/07 00:21:26;;;;;;;3.63;1.40;;;;;;;17.77;77.71;100551.13;5054775;28;20106;-81
2022/09/07 00:24:29;;;;;;;8.43;1.60;;;;;;;17.77;77.92;100572.28;5055172;28;20102;-81
2022/09/07 00:27:33;;;;;;;6.57;2.10;;;;;;;17.93;77.36;100563.88;5055449;28;20044;-81
2022/09/07 00:30:41;;;;;;;4.68;1.42;;;;;;;18.07;78.26;100557.47;5055800;28;20114;-81
2022/09/07 00:33:49;;;;;;;9.85;2.95;;;;;;;18.23;79.24;100557.88;5055538;28;20044;-81
2022/09/07 00:36:53;;;;;;;9.32;2.40;;;;;;;18.33;80.26;100574.66;5055352;28;20179;-81
2022/09/07 00:40:04;;;;;;;6.82;2.03;;;;;;;18.22;81.25;100550.91;5055583;28;20087;-81
2022/09/07 00:43:15;;;;;;;7.88;2.58;;;;;;;17.99;82.92;100538.75;5055792;28;20124;-81
2022/09/07 00:46:28;;;;;;;7.38;2.40;;;;;;;17.78;84.27;100536.91;5055429;28;20048;-81
2022/09/07 00:49:34;;;;;;;12.98;2.95;;;;;;;17.79;84.79;100549.16;5055792;28;20148;-81
2022/09/07 00:52:39;;;;;;;8.27;2.25;;;;;;;17.67;85.64;100544.84;5054589;28;20354;-81
2022/09/07 00:55:45;;;;;;;11.15;3.08;;;;;;;17.94;85.43;100525.06;5055319;28;20052;-81
2022/09/07 00:58:50;;;;;;;10.82;2.17;;;;;;;17.91;86.33;100490.94;5056204;28;20102;-81
2022/09/07 01:01:54;;;;;;;7.88;2.17;;;;;;;18.00;86.09;100480.44;5056168;28;20626;-81
2022/09/07 01:05:10;;;;;;;11.45;2.50;;;;;;;18.16;85.33;100452.66;5073299;28;20527;-81
2022/09/07 01:08:15;;;;;;;9.00;2.17;;;;;;;17.95;86.36;100439.44;5095536;28;20050;-81
2022/09/07 01:11:20;;;;;;;8.45;2.40;;;;;;;18.25;86.26;100436.84;5095618;28;20051;-81
2022/09/07 01:14:38;;;;;;;9.43;2.20;;;;;;;18.36;85.93;100420.03;5086630;28;20097;-81
2022/09/07 01:17:59;;;;;;;6.25;1.92;;;;;;;18.40;85.46;100404.72;5106570;28;20043;-81
2022/09/07 01:21:24;;;;;;;7.90;1.90;;;;;;;18.45;85.08;100395.41;5082382;28;20078;-80
2022/09/07 01:24:42;;;;;;;8.52;1.95;;;;;;;18.55;84.49;100404.22;5095716;28;20046;-81
2022/09/07 01:28:23;;;;;;;6.25;2.20;;;;;;;18.68;83.37;100398.69;5094356;28;20097;-81
2022/09/07 01:32:09;;;;;;;6.13;1.77;;;;;;;18.59;83.96;100395.03;5094639;28;20043;-81
2022/09/07 01:35:39;;;;;;;8.57;2.03;;;;;;;18.65;84.85;100364.50;5095090;28;20050;-81
2022/09/07 01:38:52;;;;;;;7.80;1.85;;;;;;;18.63;85.11;100361.16;5094436;28;20567;-81
2022/09/07 01:42:12;;;;;;;6.63;2.20;;;;;;;18.44;86.04;100369.91;5094196;28;20039;-81
2022/09/07 01:45:18;;;;;;;9.38;1.60;;;;;;;18.30;86.61;100372.91;5094889;28;20533;-81
2022/09/07 01:48:24;;;;;;;8.38;1.70;;;;;;;18.38;87.00;100372.22;5094377;28;20034;-81
2022/09/07 01:51:33;;;;;;;7.28;1.77;;;;;;;18.24;87.24;100368.97;5094548;28;20043;-81
2022/09/07 01:54:44;;;;;;;5.18;1.70;;;;;;;18.17;87.65;100362.56;5094737;28;20078;-81
2022/09/07 01:57:58;;;;;;;5.95;1.48;;;;;;;18.26;87.28;100353.81;5094012;28;20047;-81
2022/09/07 02:01:22;;;;;;;5.40;2.30;;;;;;;18.31;87.29;100348.09;5094276;28;20073;-81
2022/09/07 02:05:05;;;;;;;5.55;1.90;;;;;;;18.30;86.65;100336.69;5094177;28;20105;-81
2022/09/07 02:08:11;;;;;;;6.68;1.85;;;;;;;18.29;86.53;100344.78;5035456;28;20048;-81
2022/09/07 02:11:20;;;;;;;9.15;1.45;;;;;;;18.27;86.17;100352.84;5094000;28;20097;-81
2022/09/07 02:14:28;;;;;;;5.15;1.52;;;;;;;18.36;85.94;100362.63;5094340;28;20046;-81
2022/09/07 02:17:36;;;;;;;6.18;1.73;;;;;;;18.31;86.32;100353.41;5094085;28;20043;-80
2022/09/07 02:20:46;;;;;;;3.90;1.40;;;;;;;18.33;86.34;100339.06;5092813;28;20102;-80
2022/09/07 02:23:54;;;;;;;5.72;1.95;;;;;;;18.18;86.15;100351.00;5097903;28;20046;-80
2022/09/07 02:27:00;;;;;;;7.13;1.67;;;;;;;18.21;85.89;100363.13;5113003;28;20058;-80
2022/09/07 02:30:04;;;;;;;6.03;1.95;;;;;;;18.15;85.81;100353.91;5114376;28;20038;-80
2022/09/07 02:33:10;;;;;;;7.50;2.00;;;;;;;18.12;85.51;100362.09;5105150;28;20122;-80
2022/09/07 02:36:17;;;;;;;4.88;1.15;;;;;;;18.12;85.43;100357.69;5094032;28;20108;-81
2022/09/07 02:39:20;;;;;;;6.15;1.88;;;;;;;18.03;86.02;100349.69;5095075;28;20054;-81
2022/09/07 02:42:23;;;;;;;3.97;1.60;;;;;;;18.12;85.89;100346.22;5094654;28;20046;-81
2022/09/07 02:45:37;;;;;;;6.82;1.85;;;;;;;17.98;86.05;100354.53;5093025;28;20105;-81
2022/09/07 02:49:05;;;;;;;4.72;2.05;;;;;;;18.07;85.99;100345.81;5091333;28;20047;-80
2022/09/07 02:52:31;;;;;;;5.18;1.88;;;;;;;18.29;84.83;100345.63;5090537;28;20409;-80
2022/09/07 02:56:07;;;;;;;5.43;2.10;;;;;;;18.21;85.17;100348.06;5091924;28;20074;-81
2022/09/07 02:59:22;;;;;;;5.78;2.00;;;;;;;18.21;85.17;100352.53;5092288;28;20127;-81
2022/09/07 03:02:42;;;;;;;12.50;2.70;;;;;;;18.26;84.72;100360.94;5085862;28;20047;-81
2022/09/07 03:05:57;;;;;;;5.03;2.40;;;;;;;18.10;85.47;100370.19;5089491;28;20437;-81
2022/09/07 03:09:06;;;;;;;4.85;2.20;;;;;;;18.04;85.87;100370.72;5091911;28;20051;-81
2022/09/07 03:12:10;;;;;;;6.50;1.92;;;;;;;17.94;85.57;100371.66;5094110;28;20441;-81
2022/09/07 03:15:16;;;;;;;3.25;1.40;;;;;;;17.93;84.70;100359.38;5092614;28;20047;-81
2022/09/07 03:18:20;;;;;;;3.65;1.15;;;;;;;17.92;83.88;100341.84;5093547;28;20047;-81
2022/09/07 03:21:23;;;;;;;6.20;1.85;;;;;;;17.94;84.14;100334.63;5093369;28;20058;-81
2022/09/07 03:24:27;;;;;;;3.58;1.90;;;;;;;17.88;84.94;100342.09;5093762;28;20054;-81
2022/09/07 03:27:31;;;;;;;5.00;2.42;;;;;;;17.82;85.83;100329.41;5093724;28;20051;-81
2022/09/07 03:30:35;;;;;;;4.32;1.60;;;;;;;17.90;84.79;100326.09;5080784;28;20043;-81
2022/09/07 03:33:38;;;;;;;5.20;1.85;;;;;;;17.87;85.26;100332.50;5093502;28;20043;-81
2022/09/07 03:36:42;;;;;;;5.55;2.50;;;;;;;17.85;85.83;100326.47;5092944;28;20089;-81
2022/09/07 03:39:46;;;;;;;5.03;2.13;;;;;;;17.93;84.91;100328.47;5093214;28;20051;-81
2022/09/07 03:42:49;;;;;;;6.18;2.97;;;;;;;17.86;85.21;100333.44;5093448;28;20168;-81
2022/09/07 03:46:18;;;;;;;4.85;2.80;;;;;;;17.89;85.30;100333.19;5087936;28;20806;-81
2022/09/07 03:49:47;;;;;;;4.90;2.53;;;;;;;17.95;85.39;100338.91;5092269;28;20047;-80
2022/09/07 03:52:51;;;;;;;3.22;2.28;;;;;;;18.01;85.05;100327.81;5089031;28;20131;-80
2022/09/07 03:56:01;;;;;;;3.47;2.38;;;;;;;18.08;84.55;100327.13;5089299;28;20044;-80
2022/09/07 03:59:06;;;;;;;4.35;2.85;;;;;;;18.01;84.95;100333.94;5050694;28;20093;-81
2022/09/07 04:02:12;;;;;;;5.93;2.88;;;;;;;17.96;84.98;100328.19;5049420;28;20082;-81
2022/09/07 04:05:17;;;;;;;5.88;2.47;;;;;;;17.93;84.61;100328.47;5050792;28;20056;-81
2022/09/07 04:08:28;;;;;;;6.35;2.38;;;;;;;17.84;84.53;100330.09;5048745;28;20420;-81
2022/09/07 04:11:39;;;;;;;5.85;3.30;;;;;;;17.68;85.32;100329.72;5049384;28;20106;-80
2022/09/07 04:14:45;;;;;;;4.00;3.03;;;;;;;17.56;86.50;100330.75;5049483;28;20471;-81
2022/09/07 04:17:53;;;;;;;4.38;3.50;;;;;;;17.57;86.81;100324.50;5047034;28;20193;-81
2022/09/07 04:20:59;;;;;;;4.55;3.33;;;;;;;17.34;87.96;100335.19;5049402;28;20106;-81
2022/09/07 04:24:06;;;;;;;8.15;3.97;;;;;;;17.38;88.36;100339.25;5067464;28;20388;-80
2022/09/07 04:27:18;;;;;;;8.75;3.95;;;;;;;17.27;88.91;100336.69;5067125;28;20077;-81
2022/09/07 04:30:26;;;;;;;3.65;3.22;;;;;;;17.48;88.63;100334.03;5068532;28;20121;-81
2022/09/07 04:33:33;;;;;;;6.13;3.80;;;;;;;17.66;86.98;100342.22;5068726;28;20503;-82
2022/09/07 04:36:41;;;;;;;5.07;3.33;;;;;;;17.53;87.36;100334.50;5069053;28;20035;-81
2022/09/07 04:39:47;;;;;;;6.25;3.30;;;;;;;17.53;87.11;100341.59;5066646;28;20060;-82
2022/09/07 04:42:52;;;;;;;6.20;3.45;;;;;;;17.50;87.47;100341.84;5067830;28;20186;-82
2022/09/07 04:45:56;;;;;;;8.10;3.40;;;;;;;17.48;87.29;100343.75;5070567;28;20090;-82
2022/09/07 04:49:03;;;;;;;9.35;4.45;;;;;;;17.36;88.35;100340.38;5071068;28;20569;-81
2022/09/07 04:52:12;;;;;;;12.45;4.18;;;;;;;17.12;89.06;100343.22;5071647;28;20093;-81
2022/09/07 04:55:23;;;;;;;6.93;3.65;;;;;;;17.11;89.27;100337.09;5071668;28;20055;-81
2022/09/07 04:58:28;;;;;;;4.68;3.50;;;;;;;17.20;88.67;100346.91;5072983;28;20044;-81
2022/09/07 05:01:32;;;;;;;8.68;3.50;;;;;;;17.23;87.63;100356.41;5073009;28;20047;-81
2022/09/07 05:04:38;;;;;;;3.83;2.95;;;;;;;17.30;86.99;100352.28;5074412;28;20059;-81
2022/09/07 05:07:42;;;;;;;4.05;3.13;;;;;;;17.19;88.19;100358.44;5072343;28;20368;-81
2022/09/07 05:10:51;;;;;;;5.55;3.50;;;;;;;17.28;87.91;100354.19;5066131;28;20086;-82
2022/09/07 05:13:58;;;;;;;4.35;3.92;;;;;;;17.12;88.99;100359.91;5071049;28;20051;-82
2022/09/07 05:17:02;;;;;;;3.92;3.53;;;;;;;17.15;88.96;100361.47;5072149;28;20040;-81
2022/09/07 05:20:06;;;;;;;6.47;3.88;;;;;;;17.29;88.69;100362.97;5072596;28;20502;-81
2022/09/07 05:23:12;;;;;;;6.15;3.10;;;;;;;17.35;87.46;100373.84;5072930;28;20458;-81
2022/09/07 05:26:21;;;;;;;6.18;4.53;;;;;;;17.41;87.13;100380.44;5062760;28;20043;-81
2022/09/07 05:29:48;;;;;;;4.80;4.20;;;;;;;17.33;87.75;100369.69;5085494;28;20134;-81
2022/09/07 05:32:52;;;;;;;8.10;4.13;;;;;;;17.19;88.51;100365.53;5066894;28;20047;-81
2022/09/07 05:35:57;;;;;;;6.70;3.20;;;;;;;17.20;88.01;100367.22;5051845;28;20036;-81
2022/09/07 05:39:01;;;;;;;8.60;3.15;;;;;;;17.07;88.86;100379.75;5067513;28;20051;-81
2022/09/07 05:42:06;;;;;;;5.80;2.28;;;;;;;17.11;88.15;100375.91;5074654;28;20090;-81
2022/09/07 05:45:10;;;;;;;3.17;2.35;;;;;;;17.09;88.19;100376.00;5074345;28;20044;-81
2022/09/07 05:48:15;;;;;;;3.83;2.33;;;;;;;16.94;88.49;100380.75;5071108;28;20040;-81
2022/09/07 05:51:20;;;;;;;4.00;3.05;;;;;;;17.07;87.86;100379.75;5070068;28;20112;-81
2022/09/07 05:54:24;;;;;;;6.70;2.75;;;;;;;16.89;89.48;100374.16;5070036;28;20093;-81
2022/09/07 05:57:27;;;;;;;9.30;3.80;;;;;;;16.95;89.48;100379.78;5071248;28;20110;-81
2022/09/07 06:00:34;;;;;;;13.18;3.90;;;;;;;17.11;89.84;100394.41;5059325;28;20454;-81
2022/09/07 06:03:40;;;;;;;6.82;4.10;;;;;;;17.23;89.62;100390.75;5071380;28;20048;-81
2022/09/07 06:06:44;;;;;;;7.10;3.05;;;;;;;17.26;88.68;100390.50;5078880;28;20531;-81
2022/09/07 06:09:49;;;;;;;7.53;4.18;;;;;;;17.40;88.49;100392.00;5070365;28;20101;-81
2022/09/07 06:12:52;;;;;;;3.88;3.00;;;;;;;17.28;89.58;100380.63;5070846;28;20434;-81
2022/09/07 06:16:06;;;;;;;18.00;4.40;;;;;;;17.12;89.88;100390.78;5072449;28;20046;-81
2022/09/07 06:19:13;;;;;;;4.38;3.47;;;;;;;16.86;91.70;100401.66;5071022;28;20086;-81
2022/09/07 06:22:17;;;;;;;10.63;3.15;;;;;;;16.76;92.06;100406.00;5069129;28;20106;-81
2022/09/07 06:25:21;;;;;;;3.15;2.10;;;;;;;17.01;90.45;100398.75;5068224;28;20403;-81
2022/09/07 06:28:34;;;;;;;3.42;2.67;;;;;;;17.05;89.52;100406.28;5048948;28;20036;-82
2022/09/07 06:31:37;;;;;;;3.77;2.60;;;;;;;17.29;87.83;100403.44;5048791;28;20318;-82
2022/09/07 06:34:41;;;;;;;4.45;2.90;;;;;;;17.35;88.64;100402.94;5065243;28;20079;-82
2022/09/07 06:37:46;;;;;;;3.42;2.10;;;;;;;17.54;87.19;100420.75;5070164;28;20043;-81
2022/09/07 06:40:50;;;;;;;4.93;2.03;;;;;;;17.72;85.70;100421.03;5069760;28;20047;-81
2022/09/07 06:43:54;;;;;;;3.35;2.03;;;;;;;17.84;85.32;100411.28;5068684;28;20047;-83
2022/09/07 06:46:58;;;;;;;3.88;2.40;;;;;;;17.75;85.86;100410.19;5068798;28;20064;-82
2022/09/07 06:50:02;;;;;;;8.40;3.33;;;;;;;17.29;87.77;100413.16;5068722;28;20032;-82
2022/09/07 06:53:06;;;;;;;8.07;3.78;;;;;;;17.04;90.08;100420.47;5068558;28;20039;-82
2022/09/07 06:56:14;;;;;;;3.75;3.30;;;;;;;17.16;90.39;100426.53;5063073;28;20039;-82
2022/09/07 06:59:18;;;;;;;4.93;3.05;;;;;;;17.42;89.37;100427.03;5068270;28;20123;-82
2022/09/07 07:02:21;;;;;;;4.60;2.92;;;;;;;17.75;87.18;100420.78;5069908;28;20093;-82
2022/09/07 07:05:25;;;;;;;4.20;3.50;;;;;;;17.85;86.52;100427.00;5066135;28;20051;-82
2022/09/07 07:08:29;;;;;;;6.22;3.28;;;;;;;17.63;87.60;100427.91;5066909;28;20035;-82
2022/09/07 07:11:37;;;;;;;5.45;3.95;;;;;;;17.71;87.08;100424.66;5068920;28;20511;-82
2022/09/07 07:14:40;;;;;;;4.85;3.47;;;;;;;17.67;87.55;100425.84;5068745;28;20051;-82
2022/09/07 07:17:43;;;;;;;4.45;3.90;;;;;;;17.79;87.29;100427.50;5069260;28;20035;-82
2022/09/07 07:20:47;;;;;;;3.72;3.28;;;;;;;17.78;87.90;100430.28;5069388;28;20055;-82
2022/09/07 07:23:52;;;;;;;3.85;3.22;;;;;;;17.85;87.81;100432.28;5071892;28;20078;-82
2022/09/07 07:26:56;;;;;;;5.43;4.07;;;;;;;17.93;88.20;100434.28;5068452;28;20417;-83
2022/09/07 07:30:00;;;;;;;4.63;3.20;;;;;;;18.10;87.18;100430.22;5068870;28;20567;-83
2022/09/07 07:33:04;;;;;;;4.30;3.30;;;;;;;17.93;87.67;100434.28;5068746;28;20043;-82
2022/09/07 07:36:10;;;;;;;4.35;2.70;;;;;;;17.97;87.83;100434.88;5068501;28;20051;-83
2022/09/07 07:39:13;;;;;;;3.50;2.78;;;;;;;18.22;86.61;100433.59;5056453;28;20101;-83
2022/09/07 07:42:17;;;;;;;3.65;2.67;;;;;;;18.19;87.07;100429.44;5069435;28;20109;-82
2022/09/07 07:45:21;;;;;;;3.70;2.60;;;;;;;18.16;88.26;100427.03;5069217;28;20109;-82
2022/09/07 07:48:26;;;;;;;4.47;2.63;;;;;;;18.07;87.96;100438.41;5068886;28;20035;-82
2022/09/07 07:51:30;;;;;;;4.93;2.80;;;;;;;18.21;87.49;100431.94;5068716;28;20089;-82
2022/09/07 07:54:36;;;;;;;4.50;2.60;;;;;;;18.32;86.59;100434.50;5068206;28;20106;-82
2022/09/07 07:57:40;;;;;;;3.78;2.25;;;;;;;18.37;87.40;100429.63;5068218;28;20134;-83
2022/09/07 08:00:45;;;;;;;5.47;2.35;;;;;;;18.38;88.04;100428.69;5068806;28;20044;-83
2022/09/07 08:03:50;;;;;;;3.83;2.42;;;;;;;18.38;88.82;100430.47;5056919;28;20043;-83
2022/09/07 08:06:54;;;;;;;3.00;2.05;;;;;;;18.47;89.75;100427.03;5069088;28;20047;-83
2022/09/07 08:10:02;;;;;;;3.33;2.10;;;;;;;18.61;89.59;100439.09;5056274;28;20509;-83
2022/09/07 08:13:06;;;;;;;3.40;1.80;;;;;;;18.72;89.00;100437.19;5068079;28;20106;-83
2022/09/07 08:16:10;;;;;;;4.68;1.90;;;;;;;18.79;88.79;100438.34;5068344;28;20415;-82
2022/09/07 08:19:14;;;;;;;5.93;1.90;;;;;;;18.84;89.49;100440.56;5069810;28;20190;-82
2022/09/07 08:22:18;;;;;;;3.55;2.10;;;;;;;18.87;88.77;100439.47;5070836;28;20063;-82
2022/09/07 08:25:24;;;;;;;3.75;1.92;;;;;;;19.00;90.13;100434.75;5071246;28;20509;-82
2022/09/07 08:28:31;;;;;;;3.35;2.15;;;;;;;19.04;89.61;100441.44;5071841;28;20036;-82
2022/09/07 08:31:35;;;;;;;10.07;2.85;;;;;;;19.02;90.88;100438.94;5072083;28;20506;-82
2022/09/07 08:35:03;;;;;;;4.95;2.22;;;;;;;19.11;91.20;100447.88;5071614;28;20514;-82
2022/09/07 08:38:07;;;;;;;6.28;1.98;;;;;;;19.19;92.00;100449.84;5058895;28;20040;-82
2022/09/07 08:41:44;;;;;;;5.15;2.00;;;;;;;19.22;92.72;100444.28;5070815;28;20039;-82
2022/09/07 08:45:06;;;;;;;3.72;2.13;;;;;;;19.39;93.25;100448.03;5070589;28;20420;-82
2022/09/07 08:48:15;;;;;;;3.70;1.90;;;;;;;19.58;91.37;100458.66;5058347;28;20553;-82
2022/09/07 08:51:36;;;;;;;6.18;1.70;;;;;;;19.67;89.25;100455.19;5071152;28;20044;-82
2022/09/07 08:54:44;;;;;;;7.85;2.05;;;;;;;19.71;90.93;100451.28;5071606;28;20039;-82
2022/09/07 08:58:00;;;;;;;4.47;1.95;;;;;;;19.70;91.57;100457.56;5071927;28;20055;-82
2022/09/07 09:01:14;;;;;;;2.65;1.50;;;;;;;19.91;89.50;100456.56;5071222;28;20064;-82
2022/09/07 09:04:26;;;;;;;3.65;1.50;;;;;;;20.09;86.84;100457.50;5058200;28;20043;-82
2022/09/07 09:07:49;;;;;;;8.02;2.22;;;;;;;20.10;86.37;100453.88;5072115;28;20052;-82
2022/09/07 09:10:56;;;;;;;5.38;2.05;;;;;;;20.23;86.70;100455.38;5073205;28;20131;-82
2022/09/07 09:14:33;;;;;;;7.38;2.55;;;;;;;20.28;85.42;100453.97;5071909;28;20047;-82
2022/09/07 09:18:17;;;;;;;4.85;1.60;;;;;;;20.28;84.03;100445.16;5079514;28;20074;-82
2022/09/07 09:22:27;;;;;;;;;;;;;;;;;;;;;
2022/09/07 09:26:19;;;;;;;5.55;2.08;;;;;;;20.49;82.58;100445.78;5052355;28;20106;-82
2022/09/07 09:29:25;;;;;;;6.50;1.95;;;;;;;20.54;81.96;100448.84;5026879;28;20050;-82
2022/09/07 09:32:40;;;;;;;5.22;1.63;;;;;;;20.66;79.89;100447.69;5078128;28;20043;-82
2022/09/07 09:35:50;;;;;;;3.95;1.40;;;;;;;20.75;77.61;100445.16;5090756;28;20039;-82
2022/09/07 09:39:30;;;;;;;6.13;1.77;;;;;;;20.75;73.97;100445.16;5092019;28;20630;-82
2022/09/07 09:42:37;;;;;;;5.65;1.70;;;;;;;20.88;76.30;100435.00;5080975;28;20047;-82
2022/09/07 09:45:50;;;;;;;7.45;2.35;;;;;;;21.08;74.13;100441.84;5067546;28;20106;-82
2022/09/07 09:48:59;;;;;;;;;;;;;;;21.18;74.71;100447.09;5073734;28;20098;-82
2022/09/07 09:52:33;;;;;;;5.70;1.92;;;;;;;21.09;72.62;100442.69;5067768;28;19946;-82
2022/09/07 09:55:50;;;;;;;3.83;1.92;;;;;;;21.12;72.72;100440.59;5073478;28;20055;-83
2022/09/07 09:59:15;;;;;;;3.65;1.95;;;;;;;21.23;72.90;100426.22;5076389;28;20078;-83
2022/09/07 10:02:31;;;;;;;4.07;1.75;;;;;;;21.17;73.28;100429.50;5073322;28;20522;-82
2022/09/07 10:05:46;;;;;;;4.85;1.85;;;;;;;21.21;73.83;100435.34;5073453;28;20103;-82
2022/09/07 10:08:59;;;;;;;4.65;2.33;;;;;;;21.28;73.90;100436.41;5074229;28;20066;-82
2022/09/07 10:12:04;;;;;;;6.70;2.10;;;;;;;21.29;72.46;100422.13;5074249;28;20128;-82
2022/09/07 10:15:26;;;;;;;6.85;2.45;;;;;;;21.31;70.72;100430.78;5073794;28;20127;-82
2022/09/07 10:18:56;;;;;;;3.70;1.87;;;;;;;21.49;70.64;100422.84;5074445;28;20039;-83
2022/09/07 10:22:04;;;;;;;4.72;1.95;;;;;;;21.51;69.12;100416.38;5074365;28;20078;-83
2022/09/07 10:25:40;;;;;;;6.28;2.28;;;;;;;21.53;69.54;100409.06;5073718;28;20471;-83
2022/09/07 10:28:45;;;;;;;4.53;1.95;;;;;;;21.72;68.57;100412.53;5073355;28;20090;-83
2022/09/07 10:32:12;;;;;;;5.25;2.13;;;;;;;21.79;68.76;100409.13;5073403;28;20058;-83
2022/09/07 10:35:31;;;;;;;8.40;2.20;;;;;;;21.74;67.45;100421.22;5074910;28;20087;-82
2022/09/07 10:38:43;;;;;;;4.50;2.38;;;;;;;21.68;67.71;100408.53;5075184;28;20522;-83
2022/09/07 10:42:19;;;;;;;5.50;2.40;;;;;;;21.67;68.08;100404.19;5062764;28;20534;-83
2022/09/07 10:45:33;;;;;;;9.35;2.22;;;;;;;21.75;67.73;100405.06;5081934;28;20057;-83
2022/09/07 10:49:04;;;;;;;2.92;1.67;;;;;;;21.70;66.21;100407.38;5086737;28;20078;-82
2022/09/07 10:52:22;;;;;;;3.70;2.03;;;;;;;21.69;66.84;100405.69;5084214;28;20052;-82
2022/09/07 10:55:36;;;;;;;4.68;1.95;;;;;;;21.81;66.02;100406.28;5078631;28;20514;-83
2022/09/07 10:59:02;;;;;;;4.47;2.13;;;;;;;21.79;66.21;100400.25;5073017;28;20052;-83
2022/09/07 11:02:23;;;;;;;5.63;1.80;;;;;;;21.82;64.68;100390.16;5073588;28;20089;-83
2022/09/07 11:05:49;;;;;;;5.15;1.90;;;;;;;22.15;63.16;100392.19;5072716;28;20118;-83
2022/09/07 11:09:29;;;;;;;6.55;2.75;;;;;;;22.30;63.13;100395.94;5073211;28;20047;-83
2022/09/07 11:12:39;;;;;;;5.95;1.90;;;;;;;22.32;62.33;100387.81;5072258;28;20086;-82
2022/09/07 11:15:48;;;;;;;4.47;1.88;;;;;;;22.32;62.40;100391.28;5072502;28;20116;-83
2022/09/07 11:18:53;;;;;;;4.57;1.92;;;;;;;22.27;62.97;100391.78;5060688;28;20090;-83
2022/09/07 11:22:23;;;;;;;4.82;1.75;;;;;;;22.31;61.02;100391.47;5072418;28;20059;-82
2022/09/07 11:25:34;;;;;;;3.97;1.65;;;;;;;22.55;60.47;100385.38;5060123;28;20047;-83
2022/09/07 11:28:55;;;;;;;6.13;1.90;;;;;;;22.49;59.83;100393.06;5072948;28;20039;-83
2022/09/07 11:32:12;;;;;;;4.10;1.88;;;;;;;22.50;59.67;100386.72;5072299;28;20052;-83
2022/09/07 11:35:34;;;;;;;2.85;1.55;;;;;;;22.60;59.39;100381.25;5072235;28;20078;-83
2022/09/07 11:38:54;;;;;;;4.38;1.65;;;;;;;22.73;59.18;100375.47;5072292;28;20098;-83
2022/09/07 11:42:05;;;;;;;3.67;1.42;;;;;;;22.79;58.47;100358.81;5072661;28;20620;-83
2022/09/07 11:45:52;;;;;;;3.08;1.38;;;;;;;22.92;57.82;100364.50;5072343;28;20396;-83
2022/09/07 11:48:57;;;;;;;4.28;1.60;;;;;;;22.98;57.46;100361.22;4997740;28;20442;-83
2022/09/07 11:52:13;;;;;;;4.88;2.05;;;;;;;23.04;58.93;100357.06;5071432;28;20490;-82
2022/09/07 11:55:30;;;;;;;6.55;1.50;;;;;;;23.03;57.90;100370.53;5071164;28;20506;-82
2022/09/07 11:58:52;;;;;;;5.18;1.73;;;;;;;23.26;57.53;100370.72;5072118;28;20043;-82
2022/09/07 12:02:28;;;;;;;4.38;1.85;;;;;;;23.25;56.88;100353.91;5072304;28;20411;-82
2022/09/07 12:06:18;;;;;;;4.45;1.50;;;;;;;23.31;55.87;100349.72;5072110;28;20038;-82
2022/09/07 12:09:26;;;;;;;4.40;1.58;;;;;;;23.29;56.17;100349.88;5071870;28;20044;-82
2022/09/07 12:12:48;;;;;;;3.45;1.75;;;;;;;23.36;56.17;100329.56;5071681;28;20067;-82
2022/09/07 12:16:10;;;;;;;3.72;1.33;;;;;;;23.59;54.85;100318.19;5071660;28;20063;-82
2022/09/07 12:19:25;;;;;;;3.70;1.35;;;;;;;23.72;53.43;100313.19;5059325;28;20051;-83
2022/09/07 12:22:28;;;;;;;4.78;1.70;;;;;;;23.95;52.00;100317.78;5071517;28;20063;-82
2022/09/07 12:25:38;;;;;;;4.70;1.50;;;;;;;24.11;51.96;100307.88;5071595;28;20047;-82
2022/09/07 12:28:47;;;;;;;3.53;1.25;;;;;;;24.37;50.58;100315.59;5071606;28;20087;-82
2022/09/07 12:31:53;;;;;;;4.95;1.75;;;;;;;24.53;50.74;100311.19;5071782;28;20404;-83
2022/09/07 12:34:56;;;;;;;4.72;1.30;;;;;;;24.58;50.56;100309.66;5071544;28;20450;-83
2022/09/07 12:38:04;;;;;;;3.70;1.60;;;;;;;24.92;49.02;100305.78;5071799;28;20051;-83
2022/09/07 12:41:38;;;;;;;4.80;1.48;;;;;;;24.92;49.13;100310.25;5071419;28;20071;-83
2022/09/07 12:44:42;;;;;;;5.43;1.48;;;;;;;25.32;48.02;100300.28;5071726;28;20056;-83
2022/09/07 12:47:56;;;;;;;3.92;1.40;;;;;;;25.48;46.68;100305.47;5072638;28;20079;-83
2022/09/07 12:51:27;;;;;;;3.35;1.48;;;;;;;25.88;46.50;100295.38;5072676;28;20095;-83
2022/09/07 12:54:42;;;;;;;3.90;1.20;;;;;;;25.86;45.63;100302.75;5071674;28;20097;-83
2022/09/07 12:58:10;;;;;;;3.15;1.20;;;;;;;26.92;42.77;100295.13;5047403;28;20520;-83
2022/09/07 13:01:35;;;;;;;4.70;1.25;;;;;;;29.86;36.77;100277.94;5071922;28;20056;-83
2022/09/07 13:05:12;;;;;;;5.05;1.10;;;;;;;33.83;31.07;100275.63;5074120;28;20035;-82
2022/09/07 13:08:56;;;;;;;4.50;1.20;;;;;;;37.02;25.13;100269.94;5062966;28;20055;-81
2022/09/07 13:12:03;;;;;;;2.65;1.08;;;;;;;34.82;27.87;100276.16;5070317;28;20086;-80
2022/09/07 13:15:32;;;;;;;3.60;0.98;;;;;;;36.61;25.06;100267.69;5078133;28;20043;-80
2022/09/07 13:18:43;;;;;;;3.67;1.15;;;;;;;33.94;27.36;100282.88;5068997;28;20102;-80
2022/09/07 13:21:48;;;;;;;3.17;0.98;;;;;;;34.02;27.79;100271.69;5068309;28;20522;-81
2022/09/07 13:24:54;;;;;;;2.88;0.90;;;;;;;35.34;25.33;100272.38;5071281;28;20044;-81
2022/09/07 13:28:04;;;;;;;4.47;0.90;;;;;;;37.49;23.09;100272.72;5071941;28;20044;-81
2022/09/07 13:31:50;;;;;;;4.47;1.20;;;;;;;36.76;23.00;100269.72;5072024;28;20093;-81
2022/09/07 13:35:23;;;;;;;3.97;0.68;;;;;;;32.57;27.69;100282.09;5071295;28;20517;-81
2022/09/07 13:38:29;;;;;;;2.97;1.10;;;;;;;31.34;30.37;100280.41;5072085;28;20044;-81
2022/09/07 13:41:41;;;;;;;1.98;0.80;;;;;;;31.45;30.45;100285.06;5070931;28;20705;-81
2022/09/07 13:44:57;;;;;;;2.83;1.30;;;;;;;32.64;29.09;100287.41;5071697;28;20048;-83
2022/09/07 13:48:07;;;;;;;4.50;1.20;;;;;;;32.18;29.18;100278.03;5071965;28;20081;-83
2022/09/07 13:51:42;;;;;;;1.88;0.98;;;;;;;32.36;28.49;100279.88;5069933;28;20513;-83
2022/09/07 13:54:58;;;;;;;;;;;;;;;33.04;28.02;100276.81;5072345;28;20124;-83
2022/09/07 13:58:17;;;;;;;2.72;0.80;;;;;;;31.49;30.32;100258.44;5071395;28;20444;-81
2022/09/07 14:01:30;;;;;;;2.25;0.80;;;;;;;30.98;31.50;100263.06;5069489;28;20043;-82
2022/09/07 14:04:39;;;;;;;3.15;0.70;;;;;;;32.76;27.31;100249.53;5070165;28;20161;-82
2022/09/07 14:07:45;;;;;;;2.75;0.70;;;;;;;29.60;32.23;100257.25;5072668;28;20055;-82
2022/09/07 14:10:51;;;;;;;4.30;0.98;;;;;;;28.45;34.14;100262.84;5073648;28;20047;-81
2022/09/07 14:14:21;;;;;;;2.67;0.88;;;;;;;29.14;34.51;100253.63;5073745;28;20067;-81
2022/09/07 14:17:30;;;;;;;3.38;1.10;;;;;;;30.28;31.88;100257.69;5073705;28;20098;-81
2022/09/07 14:20:44;;;;;;;3.42;0.90;;;;;;;30.53;30.43;100270.38;5073632;28;20067;-81
2022/09/07 14:23:51;;;;;;;3.03;0.98;;;;;;;27.97;35.12;100268.22;5073663;28;20105;-81
2022/09/07 14:26:55;;;;;;;4.28;0.88;;;;;;;28.79;34.68;100271.81;5073437;28;20040;-81
2022/09/07 14:30:18;;;;;;;3.38;1.00;;;;;;;29.46;33.65;100269.13;5074166;28;20071;-81
2022/09/07 14:33:21;;;;;;;3.13;1.25;;;;;;;28.68;35.25;100270.53;5073507;28;20078;-81
2022/09/07 14:36:40;;;;;;;2.78;0.80;;;;;;;27.26;37.63;100267.59;5073443;28;20106;-81
2022/09/07 14:40:20;;;;;;;3.30;0.90;;;;;;;28.62;35.70;100254.38;5072929;28;20410;-80
2022/09/07 14:43:37;;;;;;;4.25;0.90;;;;;;;28.96;34.68;100242.63;5060843;28;20461;-81
2022/09/07 14:46:46;;;;;;;2.00;0.63;;;;;;;28.01;37.27;100244.47;5073795;28;20043;-81
2022/09/07 14:49:52;;;;;;;2.35;0.88;;;;;;;27.38;38.12;100233.81;5073458;28;20098;-81
2022/09/07 14:53:02;;;;;;;2.58;0.90;;;;;;;26.44;40.05;100236.66;5073246;28;20133;-81
2022/09/07 14:56:12;;;;;;;3.03;0.70;;;;;;;25.86;40.70;100230.44;5072422;28;20089;-81
2022/09/07 14:59:29;;;;;;;2.63;1.00;;;;;;;25.97;41.74;100232.63;5048851;28;20075;-81